Time;durP1;ratioP1;P1;durP2;ratioP2;P2;SDS_P1;SDS_P2;PMS_P1;PMS_P2;Temp;Humidity;BMP_temperature;BMP_pressure;BME280_temperature;BME280_humidity;BME280_pressure;Samples;Min_cycle;Max_cycle;Signal;HPM_P1;HPM_P2
2023/08/18 00:01:38;;;;;;;756.03;604.37;;;;;;;;;;5085017;28;20414;-55
2023/08/18 00:04:03;;;;;;;739.15;602.95;;;;;;;;;;5086071;28;20736;-59
2023/08/18 00:06:29;;;;;;;735.60;613.75;;;;;;;;;;5085815;28;20103;-57
2023/08/18 00:08:54;;;;;;;757.88;603.97;;;;;;;;;;5087471;28;20465;-59
2023/08/18 00:11:20;;;;;;;745.40;600.65;;;;;;;;;;5086155;28;20042;-56
2023/08/18 00:13:45;;;;;;;733.60;584.38;;;;;;;;;;5087193;28;20412;-59
2023/08/18 00:16:10;;;;;;;736.80;600.22;;;;;;;;;;5085753;28;20436;-56
2023/08/18 00:18:35;;;;;;;720.63;589.67;;;;;;;;;;5085961;28;20027;-57
2023/08/18 00:21:01;;;;;;;728.47;625.07;;;;;;;;;;5087199;28;20763;-59
2023/08/18 00:23:26;;;;;;;798.97;598.53;;;;;;;;;;5084547;28;20281;-59
2023/08/18 00:25:51;;;;;;;803.72;582.78;;;;;;;;;;5086925;28;20054;-53
2023/08/18 00:28:17;;;;;;;819.07;598.93;;;;;;;;;;5086265;28;20119;-58
2023/08/18 00:30:42;;;;;;;820.17;588.53;;;;;;;;;;5087007;28;20593;-58
2023/08/18 00:33:07;;;;;;;833.33;604.85;;;;;;;;;;5085274;28;20680;-60
2023/08/18 00:35:33;;;;;;;840.92;611.28;;;;;;;;;;5086695;28;20362;-56
2023/08/18 00:37:58;;;;;;;815.45;619.55;;;;;;;;;;5084842;28;20473;-60
2023/08/18 00:40:24;;;;;;;800.85;608.15;;;;;;;;;;5085679;28;20054;-56
2023/08/18 00:42:49;;;;;;;817.33;589.38;;;;;;;;;;5085728;28;20127;-59
2023/08/18 00:45:15;;;;;;;808.15;593.60;;;;;;;;;;5086882;28;20028;-58
2023/08/18 00:47:41;;;;;;;820.67;557.00;;;;;;;;;;5084468;28;20028;-56
2023/08/18 00:50:06;;;;;;;828.75;579.58;;;;;;;;;;5084311;28;20392;-59
2023/08/18 00:52:31;;;;;;;823.22;598.38;;;;;;;;;;5085543;28;20129;-57
2023/08/18 00:54:57;;;;;;;765.75;589.90;;;;;;;;;;5085810;28;20064;-58
2023/08/18 00:57:23;;;;;;;750.70;610.50;;;;;;;;;;5084128;28;20028;-57
2023/08/18 00:59:49;;;;;;;757.17;609.83;;;;;;;;;;5085564;28;20027;-59
2023/08/18 01:02:15;;;;;;;742.17;589.22;;;;;;;;;;5084707;28;20024;-60
2023/08/18 01:04:40;;;;;;;760.35;574.88;;;;;;;;;;5084472;28;20380;-57
2023/08/18 01:07:05;;;;;;;769.08;608.22;;;;;;;;;;5083978;28;20021;-55
2023/08/18 01:09:31;;;;;;;774.60;622.33;;;;;;;;;;5085004;28;20020;-58
2023/08/18 01:12:02;;;;;;;763.50;594.70;;;;;;;;;;5083763;28;20388;-59
2023/08/18 01:14:55;;;;;;;774.92;610.15;;;;;;;;;;5086735;28;20020;-56
2023/08/18 01:17:40;;;;;;;765.97;587.60;;;;;;;;;;5084636;28;20389;-58
2023/08/18 01:20:06;;;;;;;793.20;574.28;;;;;;;;;;5086058;28;20024;-58
2023/08/18 01:22:32;;;;;;;792.08;568.45;;;;;;;;;;5048292;28;20093;-59
2023/08/18 01:25:00;;;;;;;793.65;572.13;;;;;;;;;;5086299;28;20062;-59
2023/08/18 01:27:31;;;;;;;766.95;597.72;;;;;;;;;;5084269;28;20024;-60
2023/08/18 01:29:56;;;;;;;793.00;560.85;;;;;;;;;;5085061;28;20040;-55
2023/08/18 01:32:25;;;;;;;776.00;596.70;;;;;;;;;;5075557;28;20094;-55
2023/08/18 01:34:52;;;;;;;779.50;611.17;;;;;;;;;;5081209;28;20036;-56
2023/08/18 01:37:17;;;;;;;777.13;593.10;;;;;;;;;;5072635;28;20035;-55
2023/08/18 01:39:43;;;;;;;788.30;614.92;;;;;;;;;;5086108;28;20032;-55
2023/08/18 01:42:09;;;;;;;780.20;609.85;;;;;;;;;;5083878;28;20024;-58
2023/08/18 01:44:34;;;;;;;783.08;590.38;;;;;;;;;;5086169;28;20036;-60
2023/08/18 01:47:00;;;;;;;778.45;578.33;;;;;;;;;;5084169;28;20024;-60
2023/08/18 01:49:25;;;;;;;788.13;609.33;;;;;;;;;;5084650;28;20589;-60
2023/08/18 01:51:50;;;;;;;781.70;596.65;;;;;;;;;;5084910;28;20044;-61
2023/08/18 01:54:16;;;;;;;785.53;589.58;;;;;;;;;;5086029;28;20646;-60
2023/08/18 01:56:41;;;;;;;777.08;604.53;;;;;;;;;;5083714;28;20028;-59
2023/08/18 01:59:06;;;;;;;777.93;607.70;;;;;;;;;;5085805;28;20030;-61
2023/08/18 02:01:31;;;;;;;764.33;600.77;;;;;;;;;;5083463;28;20303;-59
2023/08/18 02:03:57;;;;;;;766.03;608.67;;;;;;;;;;5085835;28;20302;-57
2023/08/18 02:06:22;;;;;;;760.00;593.70;;;;;;;;;;5084258;28;20288;-57
2023/08/18 02:08:48;;;;;;;765.65;578.13;;;;;;;;;;5089542;28;20028;-57
2023/08/18 02:11:13;;;;;;;810.90;556.72;;;;;;;;;;5087821;28;20020;-60
2023/08/18 02:13:39;;;;;;;830.92;595.22;;;;;;;;;;5088752;28;20058;-57
2023/08/18 02:16:04;;;;;;;838.63;615.72;;;;;;;;;;5103188;28;20032;-60
2023/08/18 02:18:32;;;;;;;820.93;594.97;;;;;;;;;;5086924;28;20103;-58
2023/08/18 02:20:58;;;;;;;837.78;583.97;;;;;;;;;;5088969;28;20290;-57
2023/08/18 02:23:23;;;;;;;806.78;590.35;;;;;;;;;;5069786;28;20111;-57
2023/08/18 02:25:49;;;;;;;812.60;594.35;;;;;;;;;;5068965;28;20037;-56
2023/08/18 02:28:15;;;;;;;834.35;587.75;;;;;;;;;;5084613;28;20338;-57
2023/08/18 02:30:40;;;;;;;818.30;581.80;;;;;;;;;;5088038;28;20023;-58
2023/08/18 02:33:05;;;;;;;801.17;574.80;;;;;;;;;;5087645;28;20053;-55
2023/08/18 02:35:30;;;;;;;812.03;569.80;;;;;;;;;;5088726;28;20877;-57
2023/08/18 02:37:56;;;;;;;838.03;601.75;;;;;;;;;;5086475;28;20373;-56
2023/08/18 02:40:21;;;;;;;836.42;590.63;;;;;;;;;;5088194;28;20028;-58
2023/08/18 02:42:46;;;;;;;813.08;611.45;;;;;;;;;;5085731;28;20561;-57
2023/08/18 02:45:12;;;;;;;802.58;608.95;;;;;;;;;;5088674;28;20062;-56
2023/08/18 02:47:38;;;;;;;793.28;588.97;;;;;;;;;;5086625;28;20032;-58
2023/08/18 02:50:04;;;;;;;798.47;609.45;;;;;;;;;;5087412;28;20217;-56
2023/08/18 02:52:29;;;;;;;844.95;599.38;;;;;;;;;;5086116;28;20048;-54
2023/08/18 02:54:55;;;;;;;830.88;613.15;;;;;;;;;;5088339;28;20027;-55
2023/08/18 02:57:20;;;;;;;831.35;594.17;;;;;;;;;;5078140;28;20362;-59
2023/08/18 02:59:45;;;;;;;834.22;541.33;;;;;;;;;;5068564;28;20077;-57
2023/08/18 03:02:11;;;;;;;854.95;588.28;;;;;;;;;;5079649;28;20481;-54
2023/08/18 03:04:37;;;;;;;853.17;585.03;;;;;;;;;;5085971;28;20169;-58
2023/08/18 03:07:02;;;;;;;851.60;589.33;;;;;;;;;;5086065;28;20027;-58
2023/08/18 03:09:27;;;;;;;855.75;603.03;;;;;;;;;;5088064;28;20027;-58
2023/08/18 03:11:53;;;;;;;859.60;602.70;;;;;;;;;;5086306;28;20032;-53
2023/08/18 03:14:18;;;;;;;859.15;601.00;;;;;;;;;;5088023;28;20027;-57
2023/08/18 03:16:43;;;;;;;858.88;607.75;;;;;;;;;;5084992;28;20016;-56
2023/08/18 03:19:09;;;;;;;857.00;605.17;;;;;;;;;;5085345;28;20055;-58
2023/08/18 03:21:34;;;;;;;854.95;604.13;;;;;;;;;;5086293;28;20256;-59
2023/08/18 03:24:00;;;;;;;848.63;601.72;;;;;;;;;;5087746;28;20405;-55
2023/08/18 03:26:25;;;;;;;855.03;611.78;;;;;;;;;;5085207;28;20307;-57
2023/08/18 03:28:52;;;;;;;846.05;600.28;;;;;;;;;;5102229;28;20027;-58
2023/08/18 03:31:17;;;;;;;854.22;613.00;;;;;;;;;;5085279;28;20027;-57
2023/08/18 03:33:43;;;;;;;847.38;607.30;;;;;;;;;;5087795;28;20676;-53
2023/08/18 03:36:08;;;;;;;849.15;615.85;;;;;;;;;;5086305;28;20066;-53
2023/08/18 03:38:33;;;;;;;847.17;615.00;;;;;;;;;;5087520;28;20023;-55
2023/08/18 03:41:00;;;;;;;836.85;624.45;;;;;;;;;;5087348;28;20056;-54
2023/08/18 03:43:25;;;;;;;826.25;586.75;;;;;;;;;;5084999;28;20520;-55
2023/08/18 03:45:51;;;;;;;809.67;577.08;;;;;;;;;;5087511;28;20103;-57
2023/08/18 03:48:16;;;;;;;820.42;596.90;;;;;;;;;;5085731;28;20028;-56
2023/08/18 03:50:41;;;;;;;800.25;556.38;;;;;;;;;;5085107;28;20462;-56
2023/08/18 03:53:07;;;;;;;804.60;550.43;;;;;;;;;;5086914;28;20143;-56
2023/08/18 03:55:32;;;;;;;802.17;574.13;;;;;;;;;;5086007;28;20741;-57
2023/08/18 03:57:58;;;;;;;795.17;585.03;;;;;;;;;;5086405;28;20061;-57
2023/08/18 04:00:23;;;;;;;793.13;591.17;;;;;;;;;;5087181;28;20016;-58
2023/08/18 04:02:48;;;;;;;792.20;550.77;;;;;;;;;;5085096;28;20297;-58
2023/08/18 04:05:14;;;;;;;793.05;561.05;;;;;;;;;;5084451;28;20273;-55
2023/08/18 04:07:39;;;;;;;795.03;588.67;;;;;;;;;;5084866;28;20036;-56
2023/08/18 04:10:05;;;;;;;787.33;583.65;;;;;;;;;;5086764;28;20047;-56
2023/08/18 04:12:30;;;;;;;779.47;563.35;;;;;;;;;;5085055;28;20392;-60
2023/08/18 04:14:55;;;;;;;786.42;603.00;;;;;;;;;;5087108;28;20027;-60
2023/08/18 04:17:21;;;;;;;780.33;576.67;;;;;;;;;;5084866;28;20427;-58
2023/08/18 04:19:46;;;;;;;791.05;546.50;;;;;;;;;;5086090;28;20311;-60
2023/08/18 04:22:11;;;;;;;792.15;571.70;;;;;;;;;;5085483;28;20453;-56
2023/08/18 04:24:36;;;;;;;800.97;609.88;;;;;;;;;;5086770;28;20024;-60
2023/08/18 04:27:02;;;;;;;799.10;591.33;;;;;;;;;;5084010;28;20035;-58
2023/08/18 04:29:27;;;;;;;791.90;603.33;;;;;;;;;;5086030;28;20272;-58
2023/08/18 04:31:53;;;;;;;783.28;611.10;;;;;;;;;;5084782;28;20276;-56
2023/08/18 04:34:18;;;;;;;792.40;600.95;;;;;;;;;;5086905;28;20548;-54
2023/08/18 04:36:44;;;;;;;786.15;578.90;;;;;;;;;;5082993;28;20045;-54
2023/08/18 04:39:13;;;;;;;784.17;554.97;;;;;;;;;;5085632;28;20107;-59
2023/08/18 04:41:38;;;;;;;794.40;569.90;;;;;;;;;;5084624;28;20029;-56
2023/08/18 04:44:04;;;;;;;819.58;618.20;;;;;;;;;;5066368;28;20036;-57
2023/08/18 04:46:29;;;;;;;775.90;592.50;;;;;;;;;;5081721;28;20027;-55
2023/08/18 04:48:54;;;;;;;765.83;588.38;;;;;;;;;;5083619;28;20024;-55
2023/08/18 04:51:20;;;;;;;795.20;596.08;;;;;;;;;;5079741;28;20035;-56
2023/08/18 04:53:45;;;;;;;795.08;592.53;;;;;;;;;;5078971;28;20480;-56
2023/08/18 04:56:10;;;;;;;781.47;603.27;;;;;;;;;;5082956;28;20039;-58
2023/08/18 04:58:35;;;;;;;828.08;577.05;;;;;;;;;;5085931;28;20843;-56
2023/08/18 05:01:01;;;;;;;810.03;582.33;;;;;;;;;;5085514;28;20020;-54
2023/08/18 05:03:27;;;;;;;19.23;16.73;;;;;;;;;;5076664;28;20764;-59
2023/08/18 05:05:59;;;;;;;840.40;580.80;;;;;;;;;;5078583;28;20086;-57
2023/08/18 05:08:27;;;;;;;918.17;624.50;;;;;;;;;;5083249;28;20016;-59
2023/08/18 05:10:55;;;;;;;271.55;157.23;;;;;;;;;;5084147;28;20138;-56
2023/08/18 05:13:20;;;;;;;222.10;146.30;;;;;;;;;;5082400;28;20036;-57
2023/08/18 05:15:45;;;;;;;788.65;542.67;;;;;;;;;;5065932;28;20039;-54
2023/08/18 05:18:11;;;;;;;920.85;624.30;;;;;;;;;;5084929;28;20384;-57
2023/08/18 05:20:36;;;;;;;922.22;634.25;;;;;;;;;;5086119;28;20040;-55
2023/08/18 05:23:05;;;;;;;904.90;618.27;;;;;;;;;;5083858;28;20108;-58
2023/08/18 05:25:31;;;;;;;258.88;155.15;;;;;;;;;;5084947;28;20259;-58
2023/08/18 05:27:56;;;;;;;920.17;609.63;;;;;;;;;;5080769;28;20110;-60
2023/08/18 05:30:22;;;;;;;923.03;619.65;;;;;;;;;;5066004;28;20430;-57
2023/08/18 05:32:47;;;;;;;723.77;642.60;;;;;;;;;;5080059;28;20451;-59
2023/08/18 05:35:12;;;;;;;714.90;636.20;;;;;;;;;;5082518;28;20261;-56
2023/08/18 05:37:37;;;;;;;726.23;631.17;;;;;;;;;;5083502;28;20265;-57
2023/08/18 05:40:03;;;;;;;723.03;637.47;;;;;;;;;;5085611;28;20941;-57
2023/08/18 05:42:29;;;;;;;714.03;632.70;;;;;;;;;;5086413;28;20367;-59
2023/08/18 05:44:54;;;;;;;721.92;644.78;;;;;;;;;;5089943;28;20520;-59
2023/08/18 05:47:19;;;;;;;713.17;640.33;;;;;;;;;;5087961;28;20008;-58
2023/08/18 05:49:45;;;;;;;704.73;633.23;;;;;;;;;;5085285;28;20302;-56
2023/08/18 05:52:10;;;;;;;712.77;640.77;;;;;;;;;;5087482;28;20277;-56
2023/08/18 05:54:35;;;;;;;708.83;637.10;;;;;;;;;;5087412;28;20265;-60
2023/08/18 05:57:00;;;;;;;699.00;628.08;;;;;;;;;;5087085;28;20279;-56
2023/08/18 05:59:26;;;;;;;699.33;628.70;;;;;;;;;;5089793;28;20085;-57
2023/08/18 06:01:52;;;;;;;651.13;581.53;;;;;;;;;;5089146;28;20036;-59
2023/08/18 06:04:17;;;;;;;662.47;593.50;;;;;;;;;;5087602;28;20259;-60
2023/08/18 06:06:43;;;;;;;693.70;623.30;;;;;;;;;;5086486;28;20028;-61
2023/08/18 06:09:08;;;;;;;692.33;622.87;;;;;;;;;;5088520;28;20272;-58
2023/08/18 06:11:33;;;;;;;652.57;584.30;;;;;;;;;;5087567;28;20265;-59
2023/08/18 06:13:59;;;;;;;703.40;633.92;;;;;;;;;;5090028;28;20285;-58
2023/08/18 06:16:24;;;;;;;694.55;625.53;;;;;;;;;;5085995;28;20059;-59
2023/08/18 06:18:50;;;;;;;665.45;597.42;;;;;;;;;;5087513;28;20496;-55
2023/08/18 06:21:15;;;;;;;682.43;613.87;;;;;;;;;;5087973;28;20020;-57
2023/08/18 06:23:41;;;;;;;665.13;597.57;;;;;;;;;;5101814;28;20732;-59
2023/08/18 06:26:06;;;;;;;698.38;630.22;;;;;;;;;;5087637;28;20251;-56
2023/08/18 06:28:31;;;;;;;699.05;631.10;;;;;;;;;;5086953;28;20120;-59
2023/08/18 06:31:03;;;;;;;701.13;632.80;;;;;;;;;;5087107;28;20062;-55
2023/08/18 06:33:29;;;;;;;683.00;614.13;;;;;;;;;;5083808;28;20024;-57
2023/08/18 06:35:54;;;;;;;670.67;601.20;;;;;;;;;;5087160;28;20102;-55
2023/08/18 06:38:19;;;;;;;695.00;626.70;;;;;;;;;;5086937;28;20097;-57
2023/08/18 06:40:45;;;;;;;701.73;633.53;;;;;;;;;;5087588;28;20280;-59
2023/08/18 06:43:10;;;;;;;682.30;614.25;;;;;;;;;;5085176;28;20273;-59
2023/08/18 06:45:35;;;;;;;666.83;599.23;;;;;;;;;;5088630;28;20028;-57
2023/08/18 06:48:01;;;;;;;673.97;607.28;;;;;;;;;;5086737;28;20275;-59
2023/08/18 06:50:26;;;;;;;683.70;617.60;;;;;;;;;;5088508;28;20024;-55
2023/08/18 06:52:51;;;;;;;681.47;615.63;;;;;;;;;;5085717;28;20356;-58
2023/08/18 06:55:16;;;;;;;665.80;599.40;;;;;;;;;;5088472;28;20260;-55
2023/08/18 06:57:42;;;;;;;670.40;603.58;;;;;;;;;;5087292;28;20047;-60
2023/08/18 07:00:09;;;;;;;689.70;624.20;;;;;;;;;;5088688;28;20023;-59
2023/08/18 07:02:35;;;;;;;681.88;616.20;;;;;;;;;;5085119;28;20032;-60
2023/08/18 07:05:00;;;;;;;697.72;631.58;;;;;;;;;;5085252;28;20047;-59
2023/08/18 07:07:25;;;;;;;690.33;624.80;;;;;;;;;;5064571;28;20064;-56
2023/08/18 07:09:51;;;;;;;662.83;596.87;;;;;;;;;;5067854;28;20252;-58
2023/08/18 07:12:18;;;;;;;671.30;605.00;;;;;;;;;;5075629;28;20276;-56
2023/08/18 07:14:43;;;;;;;760.80;687.42;;;;;;;;;;5100406;28;20281;-59
2023/08/18 07:17:08;;;;;;;726.47;655.05;;;;;;;;;;5084550;28;20026;-58
2023/08/18 07:19:34;;;;;;;669.43;602.60;;;;;;;;;;5088034;28;20056;-57
2023/08/18 07:21:59;;;;;;;715.92;645.95;;;;;;;;;;5085804;28;20272;-57
2023/08/18 07:24:25;;;;;;;731.70;659.97;;;;;;;;;;5087920;28;20028;-60
2023/08/18 07:26:51;;;;;;;694.80;628.08;;;;;;;;;;5085530;28;20031;-58
2023/08/18 07:29:16;;;;;;;680.00;613.83;;;;;;;;;;5087774;28;20403;-59
2023/08/18 07:31:42;;;;;;;692.53;624.03;;;;;;;;;;5085557;28;20028;-58
2023/08/18 07:34:08;;;;;;;767.05;693.85;;;;;;;;;;5085274;28;20280;-58
2023/08/18 07:36:33;;;;;;;706.83;636.05;;;;;;;;;;5082955;28;20501;-58
2023/08/18 07:38:59;;;;;;;682.10;613.80;;;;;;;;;;5086882;28;20499;-58
2023/08/18 07:41:24;;;;;;;738.57;667.47;;;;;;;;;;5085633;28;20451;-53
2023/08/18 07:43:49;;;;;;;664.03;598.38;;;;;;;;;;5085577;28;20312;-58
2023/08/18 07:46:14;;;;;;;715.58;646.13;;;;;;;;;;5085139;28;20020;-59
2023/08/18 07:48:40;;;;;;;686.40;620.87;;;;;;;;;;5087054;28;20024;-60
2023/08/18 07:51:05;;;;;;;773.20;701.42;;;;;;;;;;5086798;28;20896;-60
2023/08/18 07:53:30;;;;;;;700.55;632.75;;;;;;;;;;5085356;28;20036;-60
2023/08/18 07:55:56;;;;;;;746.30;677.40;;;;;;;;;;5087198;28;20477;-59
2023/08/18 07:58:22;;;;;;;737.20;668.13;;;;;;;;;;5085313;28;20317;-61
2023/08/18 08:00:47;;;;;;;714.00;649.50;;;;;;;;;;5086837;28;20027;-59
2023/08/18 08:03:13;;;;;;;707.53;643.20;;;;;;;;;;5068549;28;20273;-58
2023/08/18 08:05:38;;;;;;;692.40;625.92;;;;;;;;;;5076837;28;20071;-57
2023/08/18 08:08:04;;;;;;;24.92;19.23;;;;;;;;;;5085475;28;20020;-58
2023/08/18 08:10:29;;;;;;;925.80;664.67;;;;;;;;;;5085446;28;20524;-60
2023/08/18 08:12:54;;;;;;;958.95;681.78;;;;;;;;;;5083242;28;20488;-59
2023/08/18 08:15:20;;;;;;;966.40;719.15;;;;;;;;;;5086930;28;20026;-59
2023/08/18 08:17:45;;;;;;;927.50;653.40;;;;;;;;;;5085589;28;20668;-56
2023/08/18 08:20:19;;;;;;;925.25;642.95;;;;;;;;;;5086891;28;20103;-59
2023/08/18 08:22:46;;;;;;;921.75;657.67;;;;;;;;;;5085289;28;20031;-57
2023/08/18 08:25:12;;;;;;;943.60;670.67;;;;;;;;;;5086917;28;20028;-57
2023/08/18 08:27:38;;;;;;;929.97;679.95;;;;;;;;;;5085360;28;20119;-58
2023/08/18 08:30:04;;;;;;;943.30;668.30;;;;;;;;;;5086979;28;20158;-56
2023/08/18 08:32:29;;;;;;;962.75;718.90;;;;;;;;;;5084775;28;20062;-58
2023/08/18 08:34:54;;;;;;;954.70;700.07;;;;;;;;;;5097844;28;20040;-59
2023/08/18 08:37:19;;;;;;;941.50;670.55;;;;;;;;;;5083167;28;20267;-60
2023/08/18 08:39:45;;;;;;;956.83;718.93;;;;;;;;;;5084468;28;20023;-56
2023/08/18 08:42:10;;;;;;;941.50;683.25;;;;;;;;;;5084801;28;20680;-60
2023/08/18 08:44:36;;;;;;;935.30;680.03;;;;;;;;;;5086589;28;20349;-58
2023/08/18 08:47:01;;;;;;;931.72;661.63;;;;;;;;;;5084658;28;20047;-58
2023/08/18 08:49:28;;;;;;;937.78;652.67;;;;;;;;;;5086563;28;20020;-59
2023/08/18 08:51:55;;;;;;;932.58;672.30;;;;;;;;;;5084614;28;20374;-60
2023/08/18 08:54:21;;;;;;;927.40;651.70;;;;;;;;;;5085898;28;20461;-58
2023/08/18 08:56:47;;;;;;;937.47;683.00;;;;;;;;;;5084156;28;20047;-56
2023/08/18 08:59:14;;;;;;;936.30;676.50;;;;;;;;;;5086351;28;20219;-60
2023/08/18 09:01:40;;;;;;;940.00;668.97;;;;;;;;;;5084183;28;20035;-59
2023/08/18 09:04:06;;;;;;;937.10;666.75;;;;;;;;;;5083132;28;20028;-60
2023/08/18 09:06:31;;;;;;;943.58;685.97;;;;;;;;;;5084197;28;20012;-61
2023/08/18 09:08:56;;;;;;;952.27;721.37;;;;;;;;;;5086817;28;20053;-57
2023/08/18 09:11:41;;;;;;;955.78;699.55;;;;;;;;;;5081565;28;20960;-57
2023/08/18 09:14:07;;;;;;;967.03;722.72;;;;;;;;;;5086799;28;20027;-61
2023/08/18 09:16:32;;;;;;;944.42;684.53;;;;;;;;;;5089234;28;20024;-59
2023/08/18 09:18:57;;;;;;;964.33;722.22;;;;;;;;;;5089101;28;20026;-57
2023/08/18 09:21:23;;;;;;;949.10;701.20;;;;;;;;;;5084680;28;20069;-60
2023/08/18 09:23:53;;;;;;;949.97;700.70;;;;;;;;;;5086885;28;20035;-57
2023/08/18 09:26:19;;;;;;;947.97;711.75;;;;;;;;;;5087892;28;20252;-59
2023/08/18 09:28:44;;;;;;;946.53;703.50;;;;;;;;;;5088644;28;20031;-54
2023/08/18 09:31:09;;;;;;;945.50;703.47;;;;;;;;;;5082889;28;20024;-60
2023/08/18 09:33:34;;;;;;;945.05;708.20;;;;;;;;;;5087116;28;20268;-58
2023/08/18 09:36:00;;;;;;;940.95;700.90;;;;;;;;;;5089500;28;20024;-59
2023/08/18 09:38:27;;;;;;;941.25;696.53;;;;;;;;;;5084689;28;20790;-59
2023/08/18 09:40:54;;;;;;;944.80;699.65;;;;;;;;;;5086437;28;20043;-56
2023/08/18 09:43:19;;;;;;;945.53;703.00;;;;;;;;;;5086050;28;20032;-60
2023/08/18 09:45:45;;;;;;;941.05;691.85;;;;;;;;;;5089705;28;20051;-56
2023/08/18 09:48:13;;;;;;;940.75;691.28;;;;;;;;;;5088805;28;20024;-60
2023/08/18 09:50:39;;;;;;;936.25;683.45;;;;;;;;;;5089476;28;20020;-59
2023/08/18 09:55:51;;;;;;;943.70;693.97;;;;;;;;;;5089404;28;20039;-59
2023/08/18 09:58:43;;;;;;;954.75;717.05;;;;;;;;;;5087524;28;20020;-59
2023/08/18 10:01:09;;;;;;;941.78;685.03;;;;;;;;;;5064757;28;20028;-58
2023/08/18 10:03:38;;;;;;;942.38;684.05;;;;;;;;;;5066002;28;20174;-54
2023/08/18 10:06:04;;;;;;;934.63;672.55;;;;;;;;;;5065313;28;20056;-60
2023/08/18 10:08:31;;;;;;;944.50;706.38;;;;;;;;;;5065528;28;20028;-59
2023/08/18 10:10:56;;;;;;;950.25;717.55;;;;;;;;;;5049172;28;20537;-59
2023/08/18 10:13:22;;;;;;;942.67;691.47;;;;;;;;;;5065046;28;20036;-60
2023/08/18 10:15:47;;;;;;;944.42;697.67;;;;;;;;;;5064688;28;20273;-58
2023/08/18 10:18:13;;;;;;;944.88;699.72;;;;;;;;;;5064681;28;20079;-59
2023/08/18 10:20:56;;;;;;;956.50;706.65;;;;;;;;;;5065248;28;20028;-58
2023/08/18 10:23:25;;;;;;;951.75;715.03;;;;;;;;;;5063538;28;20268;-59
2023/08/18 10:25:51;;;;;;;938.60;683.95;;;;;;;;;;5065528;28;20551;-59
2023/08/18 10:28:19;;;;;;;945.83;705.13;;;;;;;;;;5063732;28;20474;-59
2023/08/18 10:30:51;;;;;;;954.75;726.25;;;;;;;;;;5064789;28;20028;-55
2023/08/18 10:33:26;;;;;;;952.75;731.13;;;;;;;;;;5047106;28;20511;-61
2023/08/18 10:35:55;;;;;;;951.72;721.00;;;;;;;;;;5064364;28;20107;-61
2023/08/18 10:38:25;;;;;;;953.05;728.00;;;;;;;;;;5078911;28;20119;-59
2023/08/18 10:40:51;;;;;;;954.03;719.15;;;;;;;;;;5088268;28;20020;-60
2023/08/18 10:43:17;;;;;;;962.75;719.53;;;;;;;;;;5084977;28;20028;-59
2023/08/18 10:45:48;;;;;;;956.60;739.42;;;;;;;;;;5088540;28;20016;-59
2023/08/18 10:48:14;;;;;;;953.63;729.30;;;;;;;;;;5088608;28;20054;-60
2023/08/18 10:50:41;;;;;;;947.88;716.90;;;;;;;;;;5105533;28;20070;-57
2023/08/18 10:53:07;;;;;;;958.33;747.42;;;;;;;;;;5105403;28;20051;-59
2023/08/18 10:55:33;;;;;;;964.53;754.08;;;;;;;;;;5104878;28;20032;-61
2023/08/18 10:57:58;;;;;;;961.37;739.97;;;;;;;;;;5105570;28;20481;-57
2023/08/18 11:00:24;;;;;;;959.10;733.40;;;;;;;;;;5105404;28;20252;-61
2023/08/18 11:02:50;;;;;;;962.55;744.10;;;;;;;;;;5105276;28;20040;-59
2023/08/18 11:05:18;;;;;;;963.38;744.17;;;;;;;;;;5105410;28;20546;-56
2023/08/18 11:07:44;;;;;;;969.85;749.03;;;;;;;;;;5105258;28;20049;-60
2023/08/18 11:10:15;;;;;;;973.63;766.88;;;;;;;;;;5105346;28;20024;-59
2023/08/18 11:12:41;;;;;;;971.33;757.25;;;;;;;;;;5087411;28;20268;-61
2023/08/18 11:15:07;;;;;;;916.53;782.40;;;;;;;;;;5084784;28;20775;-61
2023/08/18 11:17:32;;;;;;;891.05;798.95;;;;;;;;;;5085011;28;20024;-58
2023/08/18 11:19:58;;;;;;;882.73;792.30;;;;;;;;;;5085126;28;20039;-61
2023/08/18 11:22:23;;;;;;;892.15;799.33;;;;;;;;;;5071429;28;20127;-57
2023/08/18 11:24:48;;;;;;;909.60;817.72;;;;;;;;;;5064772;28;20036;-60
2023/08/18 11:27:14;;;;;;;917.10;824.10;;;;;;;;;;5067496;28;20023;-59
2023/08/18 11:29:39;;;;;;;912.88;820.25;;;;;;;;;;5068083;28;20242;-60
2023/08/18 11:32:07;;;;;;;916.27;823.97;;;;;;;;;;5067454;28;20020;-62
2023/08/18 11:34:32;;;;;;;923.67;831.10;;;;;;;;;;5067202;28;20261;-56
2023/08/18 11:36:58;;;;;;;930.97;838.33;;;;;;;;;;5071784;28;20103;-61
2023/08/18 11:39:24;;;;;;;927.35;831.90;;;;;;;;;;5087559;28;20259;-59
2023/08/18 11:41:49;;;;;;;922.23;829.10;;;;;;;;;;5087265;28;20073;-58
2023/08/18 11:44:14;;;;;;;927.72;833.92;;;;;;;;;;5086032;28;20023;-61
2023/08/18 11:46:40;;;;;;;918.33;824.67;;;;;;;;;;5070274;28;20116;-60
2023/08/18 11:49:11;;;;;;;931.80;838.83;;;;;;;;;;5066819;28;20465;-55
2023/08/18 11:51:37;;;;;;;934.03;840.33;;;;;;;;;;5066453;28;20056;-60
2023/08/18 11:54:12;;;;;;;932.92;838.65;;;;;;;;;;5066525;28;20105;-61
2023/08/18 11:56:38;;;;;;;943.88;850.10;;;;;;;;;;5066684;28;20024;-59
2023/08/18 11:59:03;;;;;;;930.83;837.72;;;;;;;;;;5066936;28;20031;-61
2023/08/18 12:01:32;;;;;;;951.78;858.33;;;;;;;;;;5066439;28;20408;-58
2023/08/18 12:03:57;;;;;;;;;;;;;;;;;;5067947;28;20066;-60
2023/08/18 12:06:25;;;;;;;930.87;838.90;;;;;;;;;;5066479;28;19955;-60
2023/08/18 12:08:51;;;;;;;950.50;857.17;;;;;;;;;;5066695;28;20253;-62
2023/08/18 12:11:16;;;;;;;949.97;856.47;;;;;;;;;;5066967;28;20390;-59
2023/08/18 12:13:41;;;;;;;1073.60;969.67;;;;;;;;;;5066683;28;20241;-62
2023/08/18 12:16:07;;;;;;;1067.93;970.37;;;;;;;;;;5066546;28;20328;-62
2023/08/18 12:18:34;;;;;;;1064.10;968.08;;;;;;;;;;5066446;28;20031;-58
2023/08/18 12:20:59;;;;;;;1079.70;977.97;;;;;;;;;;5067135;28;20021;-60
2023/08/18 12:23:25;;;;;;;1088.65;987.67;;;;;;;;;;5066221;28;20492;-61
2023/08/18 12:25:50;;;;;;;1011.23;914.13;;;;;;;;;;5066282;28;20020;-58
2023/08/18 12:28:15;;;;;;;961.40;869.47;;;;;;;;;;5066458;28;20746;-61
2023/08/18 12:30:40;;;;;;;962.57;872.03;;;;;;;;;;5066551;28;20252;-60
2023/08/18 12:33:06;;;;;;;947.63;858.47;;;;;;;;;;5066227;28;20491;-60
2023/08/18 12:35:31;;;;;;;941.40;850.53;;;;;;;;;;5065981;28;20250;-59
2023/08/18 12:37:56;;;;;;;962.00;870.53;;;;;;;;;;5085417;28;20515;-60
2023/08/18 12:40:22;;;;;;;949.33;857.37;;;;;;;;;;5086328;28;20298;-61
2023/08/18 12:42:47;;;;;;;943.55;854.03;;;;;;;;;;5085941;28;20523;-62
2023/08/18 12:45:12;;;;;;;957.43;867.87;;;;;;;;;;5086235;28;20505;-56
2023/08/18 12:47:38;;;;;;;965.58;875.83;;;;;;;;;;5086219;28;20031;-57
2023/08/18 12:50:04;;;;;;;951.80;861.88;;;;;;;;;;5085848;28;20081;-61
2023/08/18 12:52:29;;;;;;;951.13;861.45;;;;;;;;;;5086496;28;20055;-60
2023/08/18 12:54:55;;;;;;;947.05;857.22;;;;;;;;;;5085903;28;20028;-61
2023/08/18 12:57:20;;;;;;;948.78;859.22;;;;;;;;;;5086533;28;20239;-61
2023/08/18 12:59:45;;;;;;;964.90;874.27;;;;;;;;;;5085963;28;20016;-58
2023/08/18 13:02:11;;;;;;;959.10;869.70;;;;;;;;;;5086111;28;20081;-62
2023/08/18 13:04:36;;;;;;;964.53;874.87;;;;;;;;;;5086153;28;20028;-59
2023/08/18 13:07:02;;;;;;;965.50;875.77;;;;;;;;;;5086222;28;20021;-61
2023/08/18 13:09:27;;;;;;;933.05;844.38;;;;;;;;;;5086205;28;20560;-60
2023/08/18 13:11:54;;;;;;;990.72;898.13;;;;;;;;;;5085423;28;20026;-60
2023/08/18 13:14:19;;;;;;;939.72;849.80;;;;;;;;;;5086376;28;20039;-58
2023/08/18 13:16:44;;;;;;;990.40;896.23;;;;;;;;;;5086418;28;20028;-60
2023/08/18 13:19:09;;;;;;;932.30;843.40;;;;;;;;;;5085828;28;20361;-59
2023/08/18 13:21:35;;;;;;;965.83;871.93;;;;;;;;;;5086098;28;20016;-61
2023/08/18 13:24:00;;;;;;;978.75;886.53;;;;;;;;;;5086090;28;20753;-60
2023/08/18 13:26:25;;;;;;;968.20;877.50;;;;;;;;;;5086680;28;20046;-60
2023/08/18 13:28:51;;;;;;;949.25;859.85;;;;;;;;;;5084909;28;20063;-61
2023/08/18 13:31:17;;;;;;;945.65;853.83;;;;;;;;;;5085859;28;20027;-59
2023/08/18 13:33:42;;;;;;;957.38;864.80;;;;;;;;;;5084582;28;20800;-60
2023/08/18 13:36:07;;;;;;;1028.05;934.10;;;;;;;;;;5084590;28;20500;-60
2023/08/18 13:38:33;;;;;;;946.90;856.90;;;;;;;;;;5085811;28;20370;-62
2023/08/18 13:40:58;;;;;;;948.00;856.75;;;;;;;;;;5085848;28;20024;-58
2023/08/18 13:43:23;;;;;;;987.30;891.97;;;;;;;;;;5101875;28;20032;-61
2023/08/18 13:45:49;;;;;;;972.57;877.73;;;;;;;;;;5084359;28;20360;-61
2023/08/18 13:48:14;;;;;;;946.63;855.63;;;;;;;;;;5082799;28;20248;-59